Time;durP1;ratioP1;P1;durP2;ratioP2;P2;SDS_P1;SDS_P2;PMS_P1;PMS_P2;Temp;Humidity;BMP_temperature;BMP_pressure;BME280_temperature;BME280_humidity;BME280_pressure;Samples;Min_cycle;Max_cycle;Signal;HPM_P1;HPM_P2
2022/07/24 00:00:19;;;;;;;2.97;1.77;;;;;;;16.24;63.98;101145.98;1621780;85;20963;-78
2022/07/24 00:02:45;;;;;;;3.83;1.65;;;;;;;16.02;64.07;101128.00;1629213;86;21039;-78
2022/07/24 00:05:11;;;;;;;1.90;1.60;;;;;;;16.02;64.07;101128.00;1629019;87;20946;-78
2022/07/24 00:07:37;;;;;;;1.73;1.50;;;;;;;16.08;64.00;101152.16;1642319;85;20927;-78
2022/07/24 00:10:05;;;;;;;1.77;1.67;;;;;;;16.04;64.01;101151.84;1648866;85;21120;-78
2022/07/24 00:12:31;;;;;;;3.08;2.10;;;;;;;15.99;64.01;101143.75;1640736;85;21143;-78
2022/07/24 00:14:58;;;;;;;1.50;1.40;;;;;;;15.88;64.03;101146.22;1644150;85;21162;-78
2022/07/24 00:17:24;;;;;;;3.58;1.85;;;;;;;15.86;64.07;101153.23;1644291;85;21091;-78
2022/07/24 00:19:50;;;;;;;3.07;1.63;;;;;;;15.83;64.10;101154.63;1645146;85;21092;-78
2022/07/24 00:22:15;;;;;;;2.33;1.77;;;;;;;15.78;64.10;101159.56;1646185;85;20952;-78
2022/07/24 00:24:42;;;;;;;2.27;1.80;;;;;;;15.75;64.20;101160.95;1650760;85;21069;-78
2022/07/24 00:27:08;;;;;;;1.95;1.85;;;;;;;15.71;64.15;101168.02;1648212;85;21067;-78
2022/07/24 00:29:34;;;;;;;6.57;2.20;;;;;;;15.69;64.23;101170.26;1652326;85;21063;-78
2022/07/24 00:32:00;;;;;;;2.80;2.20;;;;;;;15.66;64.23;101174.25;1661767;85;21491;-78
2022/07/24 00:34:27;;;;;;;2.22;1.90;;;;;;;15.61;64.27;101173.53;1650266;85;21095;-78
2022/07/24 00:36:53;;;;;;;2.20;2.10;;;;;;;15.58;64.31;101177.10;1631515;86;21100;-78
2022/07/24 00:39:19;;;;;;;2.07;1.70;;;;;;;15.55;64.29;101174.55;1647425;85;21123;-78
2022/07/24 00:41:45;;;;;;;1.03;0.93;;;;;;;15.49;64.36;101172.96;1639927;85;21084;-78
2022/07/24 00:44:16;;;;;;;2.10;1.47;;;;;;;15.53;64.27;101181.11;1646456;85;22427;-78
2022/07/24 00:46:46;;;;;;;2.08;1.50;;;;;;;15.49;64.25;101184.70;1633357;86;21072;-78
2022/07/24 00:49:16;;;;;;;1.45;1.37;;;;;;;15.45;64.29;101184.37;1636952;86;20967;-78
2022/07/24 00:51:44;;;;;;;1.95;1.85;;;;;;;15.43;64.31;101182.70;1658666;86;21381;-79
2022/07/24 00:54:13;;;;;;;1.50;1.35;;;;;;;15.35;64.29;101182.90;1642665;86;20885;-79
2022/07/24 00:56:42;;;;;;;1.32;1.22;;;;;;;15.30;64.30;101183.91;1638319;86;20989;-79
2022/07/24 00:59:08;;;;;;;0.90;0.90;;;;;;;15.22;64.35;101184.97;1637597;86;20945;-79
2022/07/24 01:01:34;;;;;;;1.17;1.17;;;;;;;15.19;64.36;101191.56;1635325;86;20934;-79
2022/07/24 01:04:01;;;;;;;1.40;1.30;;;;;;;15.12;64.32;101193.06;1641884;86;21174;-79
2022/07/24 01:06:27;;;;;;;1.60;1.50;;;;;;;15.07;64.36;101189.30;1626223;86;20962;-79
2022/07/24 01:08:54;;;;;;;2.62;1.92;;;;;;;15.02;64.45;101198.98;1646108;86;21394;-79
2022/07/24 01:11:20;;;;;;;2.10;1.98;;;;;;;15.01;64.48;101193.81;1637252;86;20964;-79
2022/07/24 01:13:50;;;;;;;4.03;2.30;;;;;;;14.99;64.57;101200.36;1632402;86;21888;-79
2022/07/24 01:16:17;;;;;;;3.22;2.92;;;;;;;14.99;64.54;101200.36;1642038;86;20972;-79
2022/07/24 01:18:44;;;;;;;2.75;2.17;;;;;;;14.96;64.56;101199.58;1645518;86;20949;-79
2022/07/24 01:21:10;;;;;;;2.83;2.60;;;;;;;14.95;64.65;101198.72;1642833;86;20936;-79
2022/07/24 01:23:36;;;;;;;3.67;2.20;;;;;;;14.98;64.69;101199.09;1658901;86;20916;-79
2022/07/24 01:26:07;;;;;;;2.65;2.10;;;;;;;14.99;64.65;101197.75;1643169;86;20956;-79
2022/07/24 01:28:34;;;;;;;4.42;2.27;;;;;;;14.94;64.60;101200.06;1623407;86;20972;-78
2022/07/24 01:31:00;;;;;;;2.65;2.02;;;;;;;14.91;64.67;101203.59;1649672;85;20960;-78
2022/07/24 01:33:27;;;;;;;1.92;1.70;;;;;;;14.88;64.68;101205.83;1635642;86;20905;-78
2022/07/24 01:35:53;;;;;;;3.03;2.10;;;;;;;14.79;64.62;101206.05;1634377;86;21083;-78
2022/07/24 01:38:19;;;;;;;1.72;1.62;;;;;;;14.69;64.70;101210.20;1653129;86;21124;-78
2022/07/24 01:40:45;;;;;;;2.67;1.83;;;;;;;14.65;64.80;101211.16;1627407;87;20928;-78
2022/07/24 01:43:11;;;;;;;2.45;2.25;;;;;;;14.67;64.84;101209.38;1636969;86;21101;-77
2022/07/24 01:45:37;;;;;;;2.00;1.80;;;;;;;14.67;64.86;101211.98;1664693;84;21547;-78
2022/07/24 01:48:04;;;;;;;2.42;1.98;;;;;;;14.62;64.79;101207.33;1644721;85;21079;-78
2022/07/24 01:50:32;;;;;;;3.17;1.95;;;;;;;14.61;64.89;101207.77;1652564;84;21112;-78
2022/07/24 01:53:01;;;;;;;2.83;2.05;;;;;;;14.60;64.85;101209.97;1648036;85;21080;-78
2022/07/24 01:55:26;;;;;;;4.72;1.82;;;;;;;14.58;64.94;101202.64;1649647;84;21088;-78
2022/07/24 01:57:53;;;;;;;2.30;2.03;;;;;;;14.58;64.97;101213.91;1657371;85;21104;-78
2022/07/24 02:00:20;;;;;;;2.40;2.20;;;;;;;14.58;64.95;101211.30;1639774;85;21125;-78
2022/07/24 02:02:46;;;;;;;2.20;2.00;;;;;;;14.56;64.95;101209.63;1650572;85;21773;-78
2022/07/24 02:05:14;;;;;;;3.77;1.90;;;;;;;14.53;64.94;101208.42;1649769;85;21149;-78
2022/07/24 02:07:43;;;;;;;1.92;1.70;;;;;;;14.49;65.04;101206.78;1659766;85;20984;-78
2022/07/24 02:10:11;;;;;;;1.60;1.50;;;;;;;14.47;65.01;101208.12;1672270;84;21587;-78
2022/07/24 02:12:38;;;;;;;1.98;1.17;;;;;;;14.44;64.94;101208.19;1638882;85;21072;-78
2022/07/24 02:15:05;;;;;;;1.65;1.55;;;;;;;14.38;65.01;101207.44;1655566;85;21124;-78
2022/07/24 02:17:32;;;;;;;2.55;1.67;;;;;;;14.34;65.00;101204.04;1646139;85;20950;-78
2022/07/24 02:19:58;;;;;;;2.47;1.63;;;;;;;14.30;65.00;101206.30;1632975;86;21438;-78
2022/07/24 02:22:24;;;;;;;3.05;2.10;;;;;;;14.21;65.04;101209.09;1626906;86;20941;-78
2022/07/24 02:24:50;;;;;;;2.30;2.10;;;;;;;14.14;65.13;101204.91;1628152;86;20985;-78
2022/07/24 02:27:16;;;;;;;3.20;2.50;;;;;;;14.10;65.18;101216.27;1637197;86;20889;-79
2022/07/24 02:29:42;;;;;;;1.85;1.75;;;;;;;14.11;65.27;101218.84;1621415;86;20942;-79
2022/07/24 02:32:09;;;;;;;3.17;1.62;;;;;;;14.12;65.27;101215.80;1645251;85;20913;-79
2022/07/24 02:34:35;;;;;;;2.73;1.40;;;;;;;14.13;65.24;101221.41;1642682;86;21345;-79
2022/07/24 02:37:01;;;;;;;2.30;1.30;;;;;;;14.12;65.24;101217.95;1645838;85;21103;-78
2022/07/24 02:39:27;;;;;;;1.07;1.07;;;;;;;14.11;65.20;101223.19;1626451;86;21083;-78
2022/07/24 02:41:53;;;;;;;0.90;0.90;;;;;;;14.06;65.15;101221.12;1640983;86;21097;-78
2022/07/24 02:44:19;;;;;;;1.00;0.83;;;;;;;14.02;65.13;101222.95;1609314;87;21098;-77
2022/07/24 02:46:45;;;;;;;1.70;0.82;;;;;;;13.98;65.21;101225.20;1614966;87;21511;-77
2022/07/24 02:49:11;;;;;;;1.30;0.90;;;;;;;13.97;65.23;101231.30;1611950;87;21025;-77
2022/07/24 02:51:40;;;;;;;3.85;1.20;;;;;;;13.99;65.21;101227.36;1616612;87;21200;-78
2022/07/24 02:54:06;;;;;;;1.63;1.13;;;;;;;13.96;65.13;101230.88;1616155;87;20976;-78
2022/07/24 02:56:32;;;;;;;4.33;1.40;;;;;;;13.94;65.17;101227.90;1619257;87;21147;-78
2022/07/24 02:58:59;;;;;;;2.70;1.30;;;;;;;13.91;65.11;101225.77;1621213;87;21451;-78
2022/07/24 03:01:26;;;;;;;1.00;0.90;;;;;;;13.88;65.16;101219.78;1623766;87;21547;-79
2022/07/24 03:03:52;;;;;;;1.30;1.20;;;;;;;13.86;65.11;101226.75;1614416;87;21342;-79
2022/07/24 03:06:18;;;;;;;1.30;1.20;;;;;;;13.83;65.11;101228.11;1655629;85;21110;-79
2022/07/24 03:08:44;;;;;;;1.13;1.03;;;;;;;13.76;65.13;101227.38;1649424;85;21576;-78
2022/07/24 03:11:10;;;;;;;2.50;1.52;;;;;;;13.74;65.15;101234.34;1649094;85;21059;-78
2022/07/24 03:13:37;;;;;;;;;;;;;;;13.75;65.22;101232.16;1648172;85;21066;-79
2022/07/24 03:16:05;;;;;;;1.60;1.27;;;;;;;13.74;65.25;101230.44;1654408;85;20186;-79
2022/07/24 03:18:31;;;;;;;1.47;1.10;;;;;;;13.69;65.09;101233.56;1644759;85;22052;-79
2022/07/24 03:20:56;;;;;;;1.23;1.20;;;;;;;13.66;65.09;101237.97;1665972;85;20925;-79
2022/07/24 03:23:24;;;;;;;1.00;0.90;;;;;;;13.63;65.17;101238.88;1661583;85;20988;-79
2022/07/24 03:25:50;;;;;;;1.05;1.05;;;;;;;13.61;65.14;101236.75;1644845;85;21059;-79
2022/07/24 03:28:16;;;;;;;1.40;1.30;;;;;;;13.61;65.19;101239.80;1653683;85;21086;-79
2022/07/24 03:30:42;;;;;;;0.90;0.90;;;;;;;13.62;65.21;101243.66;1661596;85;21015;-79
2022/07/24 03:33:08;;;;;;;3.08;1.70;;;;;;;13.61;65.18;101243.25;1650678;85;21059;-79
2022/07/24 03:35:34;;;;;;;1.17;1.10;;;;;;;13.62;65.17;101246.70;1643712;85;21131;-78
2022/07/24 03:38:00;;;;;;;4.03;1.60;;;;;;;13.59;65.25;101243.72;1647676;85;20897;-78
2022/07/24 03:40:26;;;;;;;1.50;1.30;;;;;;;13.62;65.31;101249.30;1643647;85;21151;-78
2022/07/24 03:42:53;;;;;;;3.60;1.92;;;;;;;13.62;65.33;101253.20;1650658;85;21075;-78
2022/07/24 03:45:19;;;;;;;2.40;1.85;;;;;;;13.67;65.40;101251.38;1650514;85;20968;-78
2022/07/24 03:47:45;;;;;;;14.45;3.77;;;;;;;13.70;65.44;101245.68;1672788;85;21535;-78
2022/07/24 03:50:11;;;;;;;5.10;2.00;;;;;;;13.76;65.46;101256.41;1670055;85;21150;-78
2022/07/24 03:52:37;;;;;;;4.43;1.90;;;;;;;13.78;65.49;101251.59;1648019;85;20989;-78
2022/07/24 03:55:07;;;;;;;2.27;2.07;;;;;;;13.82;65.55;101249.79;1660366;85;21814;-78
2022/07/24 03:57:33;;;;;;;1.57;1.47;;;;;;;13.85;65.52;101250.59;1619959;87;21047;-79
2022/07/24 04:00:00;;;;;;;3.63;2.13;;;;;;;13.89;65.60;101252.69;1645231;85;21080;-79
2022/07/24 04:02:25;;;;;;;2.15;1.95;;;;;;;13.93;65.64;101256.08;1644491;85;21632;-79
2022/07/24 04:04:51;;;;;;;2.00;1.90;;;;;;;13.95;65.73;101256.91;1644502;85;21672;-79
2022/07/24 04:07:17;;;;;;;3.80;2.33;;;;;;;13.99;65.79;101259.42;1646651;85;21089;-79
2022/07/24 04:09:43;;;;;;;3.02;1.90;;;;;;;14.02;65.84;101265.01;1630120;86;21118;-79
2022/07/24 04:12:09;;;;;;;3.17;1.63;;;;;;;14.09;65.93;101265.27;1648205;85;21066;-79
2022/07/24 04:14:35;;;;;;;2.60;2.20;;;;;;;14.16;66.00;101257.76;1656024;85;21102;-78
2022/07/24 04:17:02;;;;;;;5.62;2.37;;;;;;;14.32;66.08;101263.50;1646983;85;21137;-78
2022/07/24 04:19:28;;;;;;;2.98;1.85;;;;;;;14.47;66.07;101254.95;1646380;85;22206;-78
2022/07/24 04:21:54;;;;;;;2.30;1.70;;;;;;;14.56;66.10;101258.62;1645749;85;20940;-79
2022/07/24 04:24:19;;;;;;;5.57;2.43;;;;;;;14.64;66.13;101259.77;1660049;85;20972;-79
2022/07/24 04:26:46;;;;;;;2.53;2.00;;;;;;;14.68;66.13;101261.41;1645581;85;22535;-79
2022/07/24 04:29:12;;;;;;;2.60;2.20;;;;;;;14.75;66.20;101265.59;1630437;86;21022;-79
2022/07/24 04:31:39;;;;;;;3.47;2.20;;;;;;;14.81;66.21;101270.66;1655986;85;37563;-79
2022/07/24 04:34:05;;;;;;;7.17;2.40;;;;;;;14.83;66.25;101270.17;1657865;85;21139;-79
2022/07/24 04:36:31;;;;;;;3.10;2.20;;;;;;;14.86;66.29;101276.61;1651880;85;21393;-79
2022/07/24 04:38:57;;;;;;;4.75;2.15;;;;;;;14.89;66.35;101270.03;1658908;85;21007;-79
2022/07/24 04:41:23;;;;;;;3.43;2.37;;;;;;;14.96;66.41;101272.50;1663029;85;20987;-79
2022/07/24 04:43:50;;;;;;;6.43;2.10;;;;;;;15.02;66.43;101279.72;1670360;85;21506;-78
2022/07/24 04:46:17;;;;;;;5.62;2.55;;;;;;;15.09;66.45;101281.25;1646710;85;21842;-78
2022/07/24 04:48:43;;;;;;;3.12;2.20;;;;;;;15.12;66.42;101273.37;1621797;87;21107;-78
2022/07/24 04:51:10;;;;;;;2.95;2.35;;;;;;;15.16;66.50;101274.15;1615790;87;24038;-79
2022/07/24 04:53:36;;;;;;;5.35;2.50;;;;;;;15.22;66.56;101273.55;1623808;87;21079;-79
2022/07/24 04:56:02;;;;;;;3.15;2.40;;;;;;;15.28;66.55;101276.91;1609364;87;21135;-79
2022/07/24 04:58:28;;;;;;;4.08;1.72;;;;;;;15.33;66.57;101279.80;1632509;85;575746;-79
2022/07/24 05:00:55;;;;;;;3.67;2.00;;;;;;;15.33;66.57;101275.89;1617821;87;21151;-79
2022/07/24 05:03:21;;;;;;;;;;;;;;;15.37;66.64;101272.77;1615586;87;22109;-79
2022/07/24 05:05:47;;;;;;;4.47;2.33;;;;;;;15.44;66.93;101284.75;1593344;88;20252;-79
2022/07/24 05:08:14;;;;;;;3.67;2.27;;;;;;;15.47;66.68;101288.13;1617173;86;21080;-79
2022/07/24 05:10:40;;;;;;;3.37;2.10;;;;;;;15.52;66.77;101289.32;1597393;88;21130;-79
2022/07/24 05:13:06;;;;;;;2.77;2.00;;;;;;;15.60;66.76;101285.25;1620577;86;21602;-79
2022/07/24 05:15:32;;;;;;;3.90;2.00;;;;;;;15.78;66.87;101286.89;1634926;86;21091;-79
2022/07/24 05:17:58;;;;;;;6.70;2.10;;;;;;;16.12;66.92;101284.64;1622561;87;20923;-79
2022/07/24 05:20:24;;;;;;;2.25;1.70;;;;;;;16.53;66.87;101288.67;1618943;87;21071;-80
2022/07/24 05:22:51;;;;;;;3.75;1.70;;;;;;;17.02;66.85;101288.02;1616697;87;21045;-79
2022/07/24 05:25:17;;;;;;;7.20;1.65;;;;;;;17.60;66.85;101282.61;1613326;87;21149;-79
2022/07/24 05:27:43;;;;;;;2.60;1.50;;;;;;;18.20;66.71;101291.33;1622132;87;21588;-79
2022/07/24 05:30:11;;;;;;;3.30;1.62;;;;;;;18.76;66.61;101288.34;1643551;85;21106;-79
2022/07/24 05:32:37;;;;;;;2.10;1.90;;;;;;;19.32;66.49;101293.90;1648091;85;21092;-79
2022/07/24 05:35:05;;;;;;;3.95;1.72;;;;;;;19.82;66.30;101298.32;1654495;85;21114;-79
2022/07/24 05:37:31;;;;;;;1.67;1.37;;;;;;;20.31;66.12;101297.89;1655452;85;20972;-79
2022/07/24 05:39:57;;;;;;;4.07;1.40;;;;;;;20.75;65.96;101299.81;1653014;85;20917;-79
2022/07/24 05:42:23;;;;;;;2.53;1.30;;;;;;;21.18;65.81;101299.03;1620765;86;20916;-79
2022/07/24 05:44:49;;;;;;;7.92;1.72;;;;;;;21.58;65.58;101296.59;1610675;86;21520;-78
2022/07/24 05:47:16;;;;;;;4.05;1.50;;;;;;;21.93;65.38;101296.06;1612900;87;21610;-80
2022/07/24 05:49:42;;;;;;;4.30;1.40;;;;;;;22.20;65.10;101297.73;1591152;88;21697;-80
2022/07/24 05:52:08;;;;;;;4.00;1.45;;;;;;;22.57;65.04;101302.69;1613495;88;21562;-79
2022/07/24 05:54:34;;;;;;;2.23;1.40;;;;;;;22.89;64.70;101298.27;1567136;90;20950;-79
2022/07/24 05:57:00;;;;;;;2.70;1.37;;;;;;;23.21;64.45;101301.71;1558565;90;20981;-79
2022/07/24 05:59:26;;;;;;;5.27;2.90;;;;;;;23.44;64.12;101305.63;1631335;87;21076;-79
2022/07/24 06:01:52;;;;;;;7.73;1.60;;;;;;;23.72;63.88;101305.73;1624231;87;21613;-79
2022/07/24 06:04:18;;;;;;;3.45;1.05;;;;;;;23.92;63.52;101305.82;1633603;87;21140;-79
2022/07/24 06:06:44;;;;;;;5.57;1.30;;;;;;;24.13;63.29;101306.31;1622644;87;21075;-79
2022/07/24 06:09:11;;;;;;;3.37;1.43;;;;;;;24.29;62.90;101307.09;1620010;87;22526;-79
2022/07/24 06:11:37;;;;;;;2.50;1.20;;;;;;;24.43;62.71;101314.98;1624051;87;21053;-79
2022/07/24 06:14:03;;;;;;;3.23;1.13;;;;;;;24.63;62.49;101319.48;1635382;87;22981;-79
2022/07/24 06:16:29;;;;;;;2.05;1.17;;;;;;;24.77;62.09;101319.46;1623458;87;21553;-79
2022/07/24 06:18:55;;;;;;;5.28;1.10;;;;;;;24.90;61.83;101316.41;1620305;87;21091;-80
2022/07/24 06:21:21;;;;;;;2.23;1.20;;;;;;;25.00;61.47;101319.30;1620017;87;20983;-80
2022/07/24 06:23:47;;;;;;;3.97;1.10;;;;;;;25.02;61.30;101319.58;1619991;87;20896;-80
2022/07/24 06:26:13;;;;;;;3.45;1.52;;;;;;;25.21;61.05;101313.08;1615483;87;21117;-80
2022/07/24 06:28:39;;;;;;;3.00;1.30;;;;;;;25.42;60.72;101310.34;1621073;87;21601;-80
2022/07/24 06:31:05;;;;;;;3.50;1.17;;;;;;;25.57;60.42;101307.95;1619969;87;21681;-79
2022/07/24 06:33:31;;;;;;;4.67;1.43;;;;;;;25.78;60.10;101315.42;1615977;87;21421;-79
2022/07/24 06:35:59;;;;;;;4.53;1.20;;;;;;;25.94;59.53;101312.09;1626432;87;22242;-79
2022/07/24 06:38:26;;;;;;;3.52;1.25;;;;;;;26.08;59.47;101314.60;1624643;87;21079;-80
2022/07/24 06:40:52;;;;;;;2.87;1.10;;;;;;;26.34;59.14;101313.66;1615022;87;21185;-80
2022/07/24 06:43:18;;;;;;;1.92;1.02;;;;;;;26.59;58.52;101314.53;1617570;87;21118;-79
2022/07/24 06:45:44;;;;;;;3.65;1.20;;;;;;;26.77;58.25;101318.51;1633746;85;21684;-79
2022/07/24 06:48:10;;;;;;;2.87;1.50;;;;;;;26.95;57.98;101314.99;1650783;85;21130;-79
2022/07/24 06:50:36;;;;;;;1.73;0.90;;;;;;;27.08;57.48;101322.91;1646761;85;21162;-79
2022/07/24 06:53:02;;;;;;;2.15;1.00;;;;;;;27.04;57.08;101321.80;1650199;85;22377;-79
2022/07/24 06:55:28;;;;;;;3.00;1.13;;;;;;;27.10;56.75;101318.33;1651516;85;21445;-79
2022/07/24 06:57:54;;;;;;;2.50;1.20;;;;;;;27.21;56.52;101321.88;1654566;85;21178;-79
2022/07/24 07:00:20;;;;;;;2.50;1.10;;;;;;;27.44;56.13;101322.81;1646269;85;21823;-79
2022/07/24 07:02:47;;;;;;;1.77;0.98;;;;;;;27.55;55.64;101319.34;1615669;86;21668;-79
2022/07/24 07:05:13;;;;;;;3.30;1.20;;;;;;;27.51;55.31;101317.41;1661002;85;21094;-79
2022/07/24 07:07:39;;;;;;;;;;;;;;;27.33;54.95;101324.10;1656707;85;21004;-79
2022/07/24 07:10:06;;;;;;;;;;;;;;;27.36;54.64;101322.06;1631981;85;20884;-80
2022/07/24 07:12:32;;;;;;;2.92;1.12;;;;;;;27.30;54.06;101326.98;1652845;85;21030;-80
2022/07/24 07:14:59;;;;;;;1.95;0.90;;;;;;;27.29;54.16;101320.83;1656913;85;20976;-79
2022/07/24 07:17:27;;;;;;;1.32;0.93;;;;;;;26.88;53.53;101321.23;1647520;85;21627;-79
2022/07/24 07:19:53;;;;;;;1.80;1.00;;;;;;;26.38;53.23;101318.27;1617803;86;22230;-79
2022/07/24 07:22:19;;;;;;;3.20;1.30;;;;;;;26.14;53.15;101323.45;1621746;86;21631;-79
2022/07/24 07:24:45;;;;;;;4.78;1.20;;;;;;;25.79;52.52;101326.39;1618129;86;21051;-79
2022/07/24 07:27:11;;;;;;;6.70;0.97;;;;;;;25.21;52.48;101318.37;1651459;85;21016;-79
2022/07/24 07:29:37;;;;;;;2.25;1.12;;;;;;;24.83;52.38;101324.36;1633282;86;21054;-79
2022/07/24 07:32:05;;;;;;;1.32;0.98;;;;;;;24.51;52.20;101322.44;1623267;86;21746;-79
2022/07/24 07:34:31;;;;;;;3.85;1.05;;;;;;;24.21;51.98;101317.26;1653180;85;21064;-78
2022/07/24 07:36:57;;;;;;;4.25;1.30;;;;;;;23.88;51.87;101323.30;1665728;85;21506;-78
2022/07/24 07:39:23;;;;;;;3.08;1.22;;;;;;;23.66;51.72;101325.90;1655460;85;21516;-78
2022/07/24 07:41:49;;;;;;;2.15;1.00;;;;;;;23.78;51.85;101326.96;1651777;85;21118;-78
2022/07/24 07:44:15;;;;;;;5.07;1.60;;;;;;;24.28;51.67;101323.90;1650338;85;22327;-78
2022/07/24 07:46:41;;;;;;;4.23;1.10;;;;;;;24.48;51.08;101319.98;1660647;85;21831;-78
2022/07/24 07:49:07;;;;;;;2.10;1.10;;;;;;;24.37;51.02;101322.00;1656397;85;21831;-78
2022/07/24 07:51:34;;;;;;;3.58;1.42;;;;;;;24.16;50.87;101323.30;1616688;87;22305;-78
2022/07/24 07:54:01;;;;;;;2.20;1.25;;;;;;;23.98;50.72;101323.94;1612546;87;21764;-78
2022/07/24 07:56:30;;;;;;;3.10;1.50;;;;;;;23.84;50.65;101320.47;1619215;87;22253;-78
2022/07/24 07:58:55;;;;;;;1.82;1.27;;;;;;;23.93;50.50;101321.20;1587018;88;21658;-78
2022/07/24 08:01:21;;;;;;;2.17;1.32;;;;;;;23.93;50.50;101321.20;1619051;86;21574;-78
2022/07/24 08:03:47;;;;;;;1.80;1.10;;;;;;;23.75;50.21;101325.35;1622680;86;20952;-78
2022/07/24 08:06:13;;;;;;;6.53;1.12;;;;;;;23.59;50.26;101331.16;1588944;88;21109;-78
2022/07/24 08:08:40;;;;;;;6.40;1.12;;;;;;;23.36;49.98;101327.22;1623799;87;21548;-79
2022/07/24 08:11:06;;;;;;;2.45;1.20;;;;;;;23.10;50.08;101329.18;1613330;86;22275;-79
2022/07/24 08:13:32;;;;;;;2.70;1.20;;;;;;;22.97;50.09;101332.13;1545272;85;5001501;-79
2022/07/24 08:15:58;;;;;;;1.67;1.27;;;;;;;22.97;50.17;101326.84;1594251;88;21790;-79
2022/07/24 08:18:24;;;;;;;3.70;1.10;;;;;;;23.31;50.07;101335.88;1606768;88;21051;-79
2022/07/24 08:20:51;;;;;;;1.65;1.10;;;;;;;23.52;49.98;101329.79;1594870;88;21329;-79
2022/07/24 08:23:17;;;;;;;;;;;;;;;23.65;49.79;101333.44;1613972;86;22199;-79
2022/07/24 08:25:43;;;;;;;2.20;0.95;;;;;;;23.68;49.73;101330.62;1596440;88;20145;-79
2022/07/24 08:28:09;;;;;;;5.60;1.20;;;;;;;23.69;49.72;101323.08;1600126;88;21583;-79
2022/07/24 08:30:38;;;;;;;3.17;1.10;;;;;;;23.65;49.61;101329.95;1564675;90;21127;-79
2022/07/24 08:33:04;;;;;;;2.30;1.10;;;;;;;23.70;49.63;101334.49;1598634;88;21584;-78
2022/07/24 08:35:33;;;;;;;2.92;1.20;;;;;;;23.73;49.58;101340.91;1591529;88;21028;-78
2022/07/24 08:37:59;;;;;;;2.03;1.10;;;;;;;23.65;49.42;101337.41;1584683;88;21104;-78
2022/07/24 08:40:26;;;;;;;2.40;1.27;;;;;;;23.57;49.42;101341.43;1589778;88;21660;-78
2022/07/24 08:42:52;;;;;;;4.55;1.55;;;;;;;23.51;49.39;101339.97;1591113;88;26952;-78
2022/07/24 08:45:18;;;;;;;1.27;1.10;;;;;;;23.34;49.07;101340.12;1581063;88;21566;-77
2022/07/24 08:47:45;;;;;;;2.43;1.07;;;;;;;22.88;48.93;101330.00;1582950;88;20942;-78
2022/07/24 08:50:12;;;;;;;1.42;0.90;;;;;;;22.88;48.93;101330.00;1595479;88;21570;-78
2022/07/24 08:52:38;;;;;;;;;;;;;;;22.88;49.23;101330.00;1585157;88;20984;-78
2022/07/24 08:55:06;;;;;;;;;;;;;;;22.91;49.32;101332.00;1585581;88;20227;-78
2022/07/24 08:57:32;;;;;;;4.42;1.00;;;;;;;22.78;49.21;101333.62;1589472;88;20188;-78
2022/07/24 08:59:59;;;;;;;3.20;1.12;;;;;;;22.75;49.00;101345.19;1589037;88;21115;-78
2022/07/24 09:02:27;;;;;;;2.45;1.10;;;;;;;22.70;49.12;101346.38;1596532;88;21227;-78
2022/07/24 09:05:01;;;;;;;2.58;1.30;;;;;;;22.71;49.15;101340.16;1594547;88;21081;-78
2022/07/24 09:07:30;;;;;;;1.85;1.20;;;;;;;22.68;49.13;101345.60;1595502;88;21003;-78
2022/07/24 09:10:16;;;;;;;1.47;0.90;;;;;;;22.71;49.19;101351.56;1589073;88;21179;-78
2022/07/24 09:12:46;;;;;;;2.02;1.12;;;;;;;22.73;49.19;101353.64;1591671;88;21090;-79
2022/07/24 09:15:17;;;;;;;1.15;1.05;;;;;;;22.76;49.10;101352.63;1592564;88;21105;-78
2022/07/24 09:17:56;;;;;;;3.35;1.07;;;;;;;22.65;48.86;101357.63;1594832;88;21125;-78
2022/07/24 09:20:27;;;;;;;3.50;1.10;;;;;;;22.43;48.93;101361.89;1586969;88;21114;-78
2022/07/24 09:22:58;;;;;;;1.50;1.10;;;;;;;22.31;49.04;101367.38;1591739;88;21512;-78
2022/07/24 09:25:27;;;;;;;6.08;1.42;;;;;;;22.25;49.18;101362.89;1597049;88;20978;-78
2022/07/24 09:28:00;;;;;;;3.22;1.17;;;;;;;22.26;49.16;101370.72;1598716;88;21010;-78
2022/07/24 09:30:36;;;;;;;2.02;1.10;;;;;;;22.21;49.01;101367.94;1596951;88;20956;-78
2022/07/24 09:33:15;;;;;;;2.25;0.98;;;;;;;22.07;49.07;101371.29;1602938;88;20937;-78
2022/07/24 09:35:51;;;;;;;2.02;1.00;;;;;;;21.93;49.13;101368.48;1588768;88;21100;-79
2022/07/24 09:38:20;;;;;;;2.15;1.12;;;;;;;21.85;49.15;101366.23;1592528;88;21153;-79
2022/07/24 09:40:54;;;;;;;3.42;1.07;;;;;;;21.85;49.30;101360.97;1593644;87;21080;-79
2022/07/24 09:43:28;;;;;;;3.72;1.20;;;;;;;21.98;49.33;101362.52;1593958;88;21161;-78
2022/07/24 09:46:10;;;;;;;3.37;1.30;;;;;;;22.10;49.38;101362.77;1590669;88;21164;-78
2022/07/24 09:48:57;;;;;;;3.08;1.00;;;;;;;22.24;49.37;101351.97;1637119;86;20973;-78
2022/07/24 09:51:26;;;;;;;1.45;0.98;;;;;;;22.36;49.41;101357.41;1636495;86;20940;-78
2022/07/24 09:53:58;;;;;;;2.25;1.00;;;;;;;22.49;49.42;101350.17;1598733;88;20946;-78
2022/07/24 09:56:27;;;;;;;3.15;1.05;;;;;;;22.58;49.41;101352.31;1619921;86;21004;-78
2022/07/24 09:58:57;;;;;;;3.17;1.07;;;;;;;22.68;49.40;101362.74;1521131;85;10000861;-78
2022/07/24 10:01:26;;;;;;;1.22;1.12;;;;;;;22.75;49.36;101357.05;1633752;85;20997;-78
2022/07/24 10:03:54;;;;;;;2.22;1.10;;;;;;;22.85;49.40;101361.38;1621205;86;20936;-78
2022/07/24 10:06:25;;;;;;;0.82;0.70;;;;;;;22.97;49.43;101352.76;1638978;86;21305;-78
2022/07/24 10:08:52;;;;;;;1.90;0.95;;;;;;;23.05;49.34;101353.65;1621069;86;20972;-79
2022/07/24 10:11:19;;;;;;;2.00;0.93;;;;;;;23.17;49.43;101351.64;1597787;87;20961;-79
2022/07/24 10:13:46;;;;;;;1.57;1.00;;;;;;;23.29;49.40;101346.98;1593156;88;21390;-78
2022/07/24 10:16:20;;;;;;;1.77;0.93;;;;;;;23.30;49.10;101346.52;1624946;86;20940;-78
2022/07/24 10:19:06;;;;;;;1.10;0.80;;;;;;;23.24;49.28;101344.23;1604583;86;20932;-78
2022/07/24 10:21:37;;;;;;;2.12;0.90;;;;;;;23.29;49.24;101346.14;1633326;86;21162;-78
2022/07/24 10:24:26;;;;;;;1.22;0.90;;;;;;;23.32;49.16;101357.84;1620317;86;20932;-78
2022/07/24 10:26:56;;;;;;;3.12;0.88;;;;;;;23.30;49.14;101356.61;1597427;88;20935;-78
2022/07/24 10:29:24;;;;;;;1.80;1.10;;;;;;;23.32;49.17;101349.92;1631278;86;20972;-78
2022/07/24 10:31:56;;;;;;;2.22;1.37;;;;;;;23.32;49.19;101348.13;1599542;87;21059;-78
2022/07/24 10:34:46;;;;;;;4.08;0.85;;;;;;;23.38;49.18;101346.45;1632234;86;20948;-78
2022/07/24 10:37:41;;;;;;;3.95;0.82;;;;;;;23.41;49.02;101348.04;1591174;88;20960;-78
2022/07/24 10:40:24;;;;;;;1.75;1.00;;;;;;;23.25;48.88;101348.56;1596568;88;21012;-78
2022/07/24 10:43:11;;;;;;;2.20;1.10;;;;;;;23.20;49.02;101342.70;1589560;89;20912;-78
2022/07/24 10:45:51;;;;;;;1.92;1.12;;;;;;;23.17;48.97;101345.52;1586472;88;21425;-78
2022/07/24 10:48:25;;;;;;;1.50;1.00;;;;;;;23.17;48.95;101334.96;1539971;91;21026;-78
2022/07/24 10:51:08;;;;;;;1.80;0.78;;;;;;;23.11;48.89;101339.64;1530601;92;21047;-78
2022/07/24 10:53:42;;;;;;;1.37;1.00;;;;;;;23.11;49.01;101334.84;1529031;92;20982;-78
2022/07/24 10:56:25;;;;;;;3.65;1.60;;;;;;;23.16;49.01;101333.26;1523054;92;21100;-77
2022/07/24 10:59:12;;;;;;;1.67;1.00;;;;;;;23.22;48.98;101343.47;1518952;92;21066;-78
2022/07/24 11:01:47;;;;;;;1.52;1.00;;;;;;;23.23;48.97;101340.73;1518767;92;21118;-78
2022/07/24 11:04:24;;;;;;;1.67;0.90;;;;;;;23.24;48.81;101345.55;1528989;92;21074;-78
2022/07/24 11:06:56;;;;;;;1.98;0.90;;;;;;;23.17;48.86;101340.23;1529787;93;20986;-78
2022/07/24 11:09:27;;;;;;;2.65;1.17;;;;;;;23.20;48.91;101344.02;1533327;91;21141;-78
2022/07/24 11:12:04;;;;;;;6.60;1.00;;;;;;;23.26;48.97;101344.99;1510702;93;21155;-78
2022/07/24 11:14:43;;;;;;;1.20;0.78;;;;;;;23.35;48.97;101344.47;1569288;90;21104;-78
2022/07/24 11:17:40;;;;;;;3.67;0.82;;;;;;;23.44;48.91;101339.94;1567065;90;21147;-78
2022/07/24 11:20:14;;;;;;;3.22;0.82;;;;;;;23.47;48.85;101336.27;1513602;93;21143;-78
2022/07/24 11:22:53;;;;;;;3.42;1.00;;;;;;;23.41;48.75;101337.02;1511286;93;21800;-78
2022/07/24 11:25:23;;;;;;;3.33;0.90;;;;;;;23.38;48.75;101337.69;1524718;90;21126;-77
2022/07/24 11:27:58;;;;;;;1.32;0.90;;;;;;;23.31;48.72;101329.74;1483053;94;21154;-77
2022/07/24 11:30:28;;;;;;;2.60;1.10;;;;;;;23.32;48.72;101330.12;1486881;94;21176;-77